Greater Kankakee Airport Kankakee US
ICAO: KIKK
IATA: IKK
Category: Medium
Scheduled Services: No

Elevation: 630 ft
TransAlt. 18000 ft.

Airport Communications:
AWOS 3:111.6
CHICAGO CNTR:132.5
KANKAKEE RDO:122.2
CTAF/UNICOM:123

KIKK Zoom In..

Runways:

(A) RW 04 length 5981 ft width 100 ft
ILS 108.70 / hdg 38

(B) RW 16 length 4398 ft width 75 ft
---- / hdg 161

(C) RW 22 length 5981 ft width 100 ft
---- / hdg 218

(D) RW 34 length 4398 ft width 75 ft
---- / hdg 341

Location; KIKK
Day. 03 / Time. 02.17 Zulu
* Altimeter: 29.87
* Temperature: 28° c. 82.4°f.
* Wind from: 240° Speed 10 kn.
Dewpoint: 17° c.
Visibility: 10 Statute Miles.
Clouds: Clear (automated report).

KIKK 030217Z AUTO 24010KT 10SM CLR 28/17 A2987 RMK AO2


Wind From 240°
Speed 10 kn.

 
 
jpsmedia worldairports.se 2020   terms of use